createdAt,value
2023-05-13T00:02:08.805Z,0.00
2023-05-13T00:07:08.722Z,0.00
2023-05-13T00:12:08.690Z,0.00
2023-05-13T00:17:08.604Z,0.00
2023-05-13T00:22:08.506Z,0.00
2023-05-13T00:27:08.501Z,0.00
2023-05-13T00:32:08.420Z,0.00
2023-05-13T00:37:08.347Z,0.00
2023-05-13T00:42:08.395Z,0.00
2023-05-13T00:47:08.309Z,0.00
2023-05-13T00:52:08.250Z,0.00
2023-05-13T00:57:08.102Z,0.00
2023-05-13T01:02:08.162Z,0.00
2023-05-13T01:07:08.055Z,0.00
2023-05-13T01:12:07.978Z,0.00
2023-05-13T01:17:08.032Z,0.00
2023-05-13T01:22:07.829Z,0.00
2023-05-13T01:27:07.756Z,0.00
2023-05-13T01:32:07.698Z,0.00
2023-05-13T01:37:07.658Z,0.00
2023-05-13T01:42:07.656Z,0.00
2023-05-13T01:47:07.627Z,0.00
2023-05-13T01:52:07.540Z,0.00
2023-05-13T01:57:07.429Z,0.00
2023-05-13T02:02:07.571Z,0.00
2023-05-13T02:07:07.403Z,0.00
2023-05-13T02:12:07.370Z,0.00
2023-05-13T02:17:07.212Z,0.00
2023-05-13T02:22:07.188Z,0.00
2023-05-13T02:27:07.119Z,0.00
2023-05-13T02:32:07.291Z,0.00
2023-05-13T02:37:07.035Z,0.00
2023-05-13T02:42:07.017Z,0.00
2023-05-13T02:47:06.991Z,0.00
2023-05-13T02:52:06.922Z,0.00
2023-05-13T02:57:06.870Z,0.00
2023-05-13T03:02:06.777Z,0.00
2023-05-13T03:07:06.707Z,0.00
2023-05-13T03:12:06.643Z,0.00
2023-05-13T03:17:06.534Z,0.00
2023-05-13T03:22:06.491Z,0.00
2023-05-13T03:27:06.474Z,0.00
2023-05-13T03:32:06.512Z,5.62
2023-05-13T03:37:06.422Z,11.25
2023-05-13T03:42:06.381Z,16.88
2023-05-13T03:47:06.277Z,22.50
2023-05-13T03:52:06.203Z,39.38
2023-05-13T03:57:06.216Z,50.62
2023-05-13T04:02:06.131Z,67.50
2023-05-13T04:07:06.007Z,84.38
2023-05-13T04:12:05.925Z,112.50
2023-05-13T04:17:06.102Z,129.38
2023-05-13T04:22:14.714Z,151.88
2023-05-13T04:27:05.784Z,174.38
2023-05-13T04:32:05.824Z,202.50
2023-05-13T04:37:05.736Z,230.62
2023-05-13T04:42:06.710Z,275.62
2023-05-13T04:47:05.579Z,315.00
2023-05-13T04:52:05.548Z,360.00
2023-05-13T04:57:05.455Z,354.38
2023-05-13T05:02:05.472Z,371.25
2023-05-13T05:07:05.320Z,438.75
2023-05-13T05:12:05.305Z,382.50
2023-05-13T05:17:05.270Z,410.62
2023-05-13T05:22:05.270Z,523.12
2023-05-13T05:27:05.132Z,646.88
2023-05-13T05:32:05.189Z,703.12
2023-05-13T05:37:05.015Z,742.50
2023-05-13T05:42:04.990Z,815.62
2023-05-13T05:47:04.910Z,866.25
2023-05-13T05:52:04.873Z,1057.50
2023-05-13T05:57:04.785Z,1046.25
2023-05-13T06:02:04.821Z,1063.12
2023-05-13T06:07:04.757Z,1186.88
2023-05-13T06:12:04.677Z,1170.00
2023-05-13T06:17:04.612Z,1130.62
2023-05-13T06:22:04.759Z,1136.25
2023-05-13T06:27:04.488Z,1141.88
2023-05-13T06:32:04.414Z,1141.88
2023-05-13T06:37:04.374Z,1040.62
2023-05-13T06:42:04.345Z,1063.12
2023-05-13T06:47:04.299Z,793.12
2023-05-13T06:52:04.229Z,742.50
2023-05-13T06:57:04.204Z,810.00
2023-05-13T07:02:04.095Z,843.75
2023-05-13T07:07:04.051Z,624.38
2023-05-13T07:12:04.086Z,433.12
2023-05-13T07:17:04.066Z,618.75
2023-05-13T07:22:03.929Z,1113.75
2023-05-13T07:27:04.007Z,1282.50
2023-05-13T07:32:03.854Z,1406.25
2023-05-13T07:37:03.774Z,1732.50
2023-05-13T07:42:03.695Z,3510.00
2023-05-13T07:47:03.647Z,3577.50
2023-05-13T07:52:03.528Z,3481.88
2023-05-13T07:57:03.474Z,4753.12
2023-05-13T08:02:03.443Z,4680.00
2023-05-13T08:07:03.409Z,4713.75
2023-05-13T08:12:03.429Z,4933.12
2023-05-13T08:17:03.399Z,5011.88
2023-05-13T08:22:04.215Z,5169.38
2023-05-13T08:27:03.262Z,5169.38
2023-05-13T08:32:03.177Z,5259.38
2023-05-13T08:37:03.066Z,5130.00
2023-05-13T08:42:03.023Z,5529.38
2023-05-13T08:47:02.983Z,5580.00
2023-05-13T08:52:02.959Z,5653.12
2023-05-13T08:57:02.877Z,5681.25
2023-05-13T09:02:02.849Z,5760.00
2023-05-13T09:07:02.805Z,5855.62
2023-05-13T09:12:02.859Z,5878.12
2023-05-13T09:17:02.691Z,5940.00
2023-05-13T09:22:02.590Z,6024.38
2023-05-13T09:27:02.546Z,6097.50
2023-05-13T09:32:02.579Z,6001.88
2023-05-13T09:37:02.442Z,6125.62
2023-05-13T09:42:05.358Z,6339.38
2023-05-13T09:47:02.749Z,6356.25
2023-05-13T09:52:02.258Z,6356.25
2023-05-13T09:57:02.271Z,6429.38
2023-05-13T10:02:02.161Z,6502.50
2023-05-13T10:07:02.129Z,6603.75
2023-05-13T10:12:02.099Z,6626.25
2023-05-13T10:17:02.246Z,6637.50
2023-05-13T10:22:02.064Z,6733.12
2023-05-13T10:27:02.040Z,6766.88
2023-05-13T10:32:01.909Z,6795.00
2023-05-13T10:37:01.845Z,6896.25
2023-05-13T10:42:01.757Z,6935.62
2023-05-13T10:47:01.794Z,6930.00
2023-05-13T10:52:01.684Z,6991.88
2023-05-13T10:57:01.629Z,7048.12
2023-05-13T11:02:01.732Z,7143.75
2023-05-13T11:07:01.501Z,7160.62
2023-05-13T11:12:01.446Z,7110.00
2023-05-13T11:17:01.498Z,7110.00
2023-05-13T11:22:01.329Z,7081.88
2023-05-13T11:27:01.334Z,7166.25
2023-05-13T11:32:01.357Z,7104.38
2023-05-13T11:37:01.180Z,7098.75
2023-05-13T11:42:01.205Z,7171.88
2023-05-13T11:47:01.181Z,7110.00
2023-05-13T11:52:01.110Z,7183.12
2023-05-13T11:57:01.040Z,7183.12
2023-05-13T12:02:00.988Z,7132.50
2023-05-13T12:07:00.932Z,7256.25
2023-05-13T12:12:00.851Z,7245.00
2023-05-13T12:17:01.985Z,7402.50
2023-05-13T12:22:00.864Z,7357.50
2023-05-13T12:27:00.765Z,7486.88
2023-05-13T12:32:00.786Z,7588.12
2023-05-13T12:37:00.797Z,3886.88
2023-05-13T12:42:00.540Z,2115.00
2023-05-13T12:47:00.511Z,7464.38
2023-05-13T12:52:00.471Z,2255.62
2023-05-13T12:57:00.515Z,2171.25
2023-05-13T13:02:09.289Z,7132.50
2023-05-13T13:07:00.343Z,7284.38
2023-05-13T13:12:00.374Z,2463.75
2023-05-13T13:17:00.311Z,2176.88
2023-05-13T13:22:00.173Z,2649.38
2023-05-13T13:27:00.073Z,6013.12
2023-05-13T13:32:00.089Z,5326.88
2023-05-13T13:36:59.999Z,2075.62
2023-05-13T13:41:59.930Z,2295.00
2023-05-13T13:46:59.899Z,6885.00
2023-05-13T13:51:59.808Z,6581.25
2023-05-13T13:56:59.768Z,2070.00
2023-05-13T14:01:59.782Z,1811.25
2023-05-13T14:06:59.665Z,3802.50
2023-05-13T14:11:59.640Z,2250.00
2023-05-13T14:16:59.594Z,1507.50
2023-05-13T14:21:59.524Z,1586.25
2023-05-13T14:26:59.453Z,6035.62
2023-05-13T14:31:59.556Z,5788.12
2023-05-13T14:36:59.388Z,883.12
2023-05-13T14:41:59.293Z,798.75
2023-05-13T14:46:59.386Z,928.12
2023-05-13T14:51:44.045Z,928.12
2023-05-13T14:56:39.929Z,928.1
2023-05-13T15:01:39.934Z,928.12
2023-05-13T15:06:39.783Z,928.12
2023-05-13T15:11:41.083Z,0.00
2023-05-13T15:16:39.788Z,0.00
